Terminal Aerodrome Forecast
Issued by NWS

Home | Current Version | Previous Version | Text Only | Print | Product List | Glossary On
Versions: 1 2 3 4 5 6 7 8 9 10 11 12 13 14
000
FTUS46 KMTR 241100
TAFSJC
TAF
KSJC 241121Z 2412/2512 VRB03KT P6SM SKC
      TEMPO 2412/2416 BKN015
     FM241800 32005KT P6SM FEW025 SCT040
     FM242100 30015G20KT P6SM SCT050 BKN180
     FM250300 29010KT P6SM VCSH SCT015 BKN020 OVC100
     FM250600 31005KT P6SM -SHRA SCT015 OVC025=

USA.gov is the U.S. government's official web portal to all federal, state and local government web resources and services.